createdAt,value
2022-11-20T00:01:06.691Z,59.23
2022-11-20T00:03:55.307Z,59.11
2022-11-20T00:06:42.137Z,58.98
2022-11-20T00:09:29.267Z,58.98
2022-11-20T00:12:17.063Z,59.08
2022-11-20T00:15:04.333Z,58.96
2022-11-20T00:17:52.436Z,58.83
2022-11-20T00:20:39.528Z,58.87
2022-11-20T00:23:26.464Z,58.87
2022-11-20T00:26:15.703Z,58.90
2022-11-20T00:29:03.407Z,58.93
2022-11-20T00:31:50.822Z,58.97
2022-11-20T00:34:39.262Z,58.93
2022-11-20T00:37:26.495Z,58.93
2022-11-20T00:40:14.538Z,58.93
2022-11-20T00:43:01.509Z,58.93
2022-11-20T00:45:48.509Z,59.09
2022-11-20T00:48:35.650Z,59.16
2022-11-20T00:51:25.904Z,59.17
2022-11-20T00:54:13.317Z,59.32
2022-11-20T00:57:00.303Z,59.31
2022-11-20T00:59:47.377Z,59.23
2022-11-20T01:02:34.572Z,59.30
2022-11-20T01:05:22.021Z,59.34
2022-11-20T01:08:12.884Z,59.47
2022-11-20T01:11:04.660Z,59.46
2022-11-20T01:13:53.469Z,59.24
2022-11-20T01:16:43.012Z,59.13
2022-11-20T01:19:30.164Z,59.22
2022-11-20T01:22:17.587Z,59.24
2022-11-20T01:25:07.100Z,59.34
2022-11-20T01:27:54.308Z,59.44
2022-11-20T01:30:41.292Z,59.43
2022-11-20T01:33:29.044Z,59.47
2022-11-20T01:36:17.529Z,59.55
2022-11-20T01:39:07.482Z,59.55
2022-11-20T01:42:42.075Z,59.55
2022-11-20T01:50:03.702Z,59.63
2022-11-20T01:52:54.964Z,59.67
2022-11-20T01:55:46.704Z,59.85
2022-11-20T01:58:38.847Z,59.64
2022-11-20T02:01:25.796Z,59.80
2022-11-20T02:04:15.254Z,59.56
2022-11-20T02:07:03.421Z,59.67
2022-11-20T02:09:53.739Z,59.59
2022-11-20T05:14:21.987Z,60.34
2022-11-20T06:45:36.976Z,60.97
2022-11-20T06:48:25.048Z,61.02
2022-11-20T06:51:12.038Z,60.89
2022-11-20T06:53:59.354Z,60.82
2022-11-20T06:56:48.915Z,61.14
2022-11-20T06:59:35.698Z,60.90
2022-11-20T07:02:23.872Z,61.13
2022-11-20T07:05:10.855Z,60.88
2022-11-20T07:07:58.303Z,60.93
2022-11-20T07:10:45.344Z,60.85
2022-11-20T07:13:32.587Z,60.87
2022-11-20T07:16:20.291Z,60.60
2022-11-20T07:19:08.836Z,60.37
2022-11-20T07:21:55.855Z,60.28
2022-11-20T07:24:46.157Z,60.11
2022-11-20T07:27:33.866Z,59.89
2022-11-20T07:30:20.636Z,60.28
2022-11-20T07:33:07.794Z,60.33
2022-11-20T07:35:56.044Z,59.83
2022-11-20T07:38:42.870Z,60.29
2022-11-20T07:41:29.946Z,60.35
2022-11-20T07:44:17.646Z,60.03
2022-11-20T07:47:04.847Z,60.16
2022-11-20T07:49:51.987Z,59.96
2022-11-20T07:52:40.409Z,60.14
2022-11-20T07:55:27.834Z,59.95
2022-11-20T07:58:14.854Z,59.83
2022-11-20T08:01:05.239Z,60.13
2022-11-20T08:03:52.119Z,59.52
2022-11-20T08:06:39.159Z,59.71
2022-11-20T08:09:27.560Z,59.52
2022-11-20T08:12:46.499Z,59.74
2022-11-20T08:15:34.939Z,59.77
2022-11-20T08:18:36.945Z,59.53
2022-11-20T08:21:24.915Z,59.40
2022-11-20T08:24:12.770Z,59.43
2022-11-20T08:27:04.709Z,59.44
2022-11-20T08:29:51.938Z,59.74
2022-11-20T08:32:39.223Z,59.21
2022-11-20T08:35:25.913Z,59.38
2022-11-20T08:38:13.282Z,59.67
2022-11-20T08:41:17.367Z,59.65
2022-11-20T08:44:10.812Z,59.67
2022-11-20T08:46:57.981Z,59.52
2022-11-20T08:49:45.030Z,59.85
2022-11-20T08:52:33.481Z,59.66
2022-11-20T08:55:23.414Z,60.12
2022-11-20T08:58:10.856Z,59.98
2022-11-20T09:00:59.419Z,59.45
2022-11-20T09:03:46.222Z,59.74
2022-11-20T09:06:33.742Z,59.32
2022-11-20T09:09:21.568Z,59.88
2022-11-20T09:12:08.908Z,59.52
2022-11-20T09:14:55.679Z,59.54
2022-11-20T09:17:43.908Z,58.52
2022-11-20T09:20:31.882Z,58.80
2022-11-20T09:23:19.445Z,59.35
2022-11-20T09:26:07.696Z,59.09
2022-11-20T09:28:58.071Z,58.24
2022-11-20T09:31:45.067Z,57.81
2022-11-20T09:34:33.919Z,58.17
2022-11-20T09:37:21.350Z,58.69
2022-11-20T09:40:19.737Z,58.95
2022-11-20T09:43:15.238Z,58.57
2022-11-20T09:46:12.870Z,58.03
2022-11-20T09:49:21.181Z,58.09
2022-11-20T09:52:21.780Z,58.06
2022-11-20T09:55:12.501Z,58.14
2022-11-20T09:58:01.472Z,57.73
2022-11-20T10:00:50.641Z,58.28
2022-11-20T10:03:43.511Z,57.82
2022-11-20T10:06:33.157Z,58.19
2022-11-20T10:09:27.971Z,57.87
2022-11-20T10:12:21.730Z,57.67
2022-11-20T10:15:19.634Z,57.17
2022-11-20T10:18:18.298Z,57.43
2022-11-20T10:21:14.798Z,57.18
2022-11-20T10:24:26.186Z,57.28
2022-11-20T10:27:35.799Z,57.50
2022-11-20T10:30:26.415Z,56.84
2022-11-20T10:33:19.256Z,56.67
2022-11-20T10:36:15.102Z,57.53
2022-11-20T10:39:08.533Z,57.09
2022-11-20T10:41:55.476Z,57.56
2022-11-20T10:45:06.803Z,57.05
2022-11-20T10:47:56.419Z,57.46
2022-11-20T10:50:56.214Z,57.55
2022-11-20T10:53:59.897Z,57.23
2022-11-20T10:56:50.637Z,56.32
2022-11-20T11:00:06.838Z,57.00
2022-11-20T11:02:55.957Z,56.33
2022-11-20T11:05:50.933Z,56.78
2022-11-20T11:08:41.111Z,56.91
2022-11-20T11:11:31.174Z,56.36
2022-11-20T11:14:18.465Z,56.49
2022-11-20T11:17:06.497Z,56.47
2022-11-20T11:20:06.032Z,56.77
2022-11-20T11:22:56.097Z,57.00
2022-11-20T11:25:43.017Z,56.68
2022-11-20T11:28:31.063Z,56.71
2022-11-20T11:31:25.429Z,56.24
2022-11-20T11:34:16.054Z,56.39
2022-11-20T11:37:05.333Z,56.70
2022-11-20T11:40:16.453Z,55.76
2022-11-20T11:43:02.042Z,56.54
2022-11-20T11:45:53.952Z,56.49
2022-11-20T11:48:40.899Z,55.97
2022-11-20T11:51:34.997Z,56.40
2022-11-20T11:54:27.541Z,55.57
2022-11-20T11:57:26.052Z,55.08
2022-11-20T12:00:16.323Z,54.99
2022-11-20T12:03:11.416Z,55.51
2022-11-20T12:06:01.776Z,54.86
2022-11-20T12:08:56.070Z,55.59
2022-11-20T12:11:55.580Z,55.62
2022-11-20T12:14:45.676Z,55.18
2022-11-20T12:17:32.597Z,55.60
2022-11-20T12:20:22.111Z,55.79
2022-11-20T12:23:16.951Z,55.26
2022-11-20T12:26:14.963Z,54.13
2022-11-20T12:29:12.475Z,52.96
2022-11-20T12:32:19.599Z,53.73
2022-11-20T12:35:26.164Z,53.97
2022-11-20T12:38:47.292Z,53.25
2022-11-20T12:42:08.178Z,53.99
2022-11-20T12:45:12.302Z,54.36
2022-11-20T12:48:19.579Z,54.46
2022-11-20T12:51:20.910Z,54.24
2022-11-20T12:54:31.419Z,54.80
2022-11-20T12:57:27.094Z,54.01
2022-11-20T13:00:17.456Z,54.07
2022-11-20T13:03:34.414Z,54.88
2022-11-20T13:06:21.726Z,53.74
2022-11-20T13:09:14.068Z,54.38
2022-11-20T13:12:08.555Z,54.52
2022-11-20T13:15:05.583Z,54.17
2022-11-20T13:18:00.956Z,54.79
2022-11-20T13:20:50.711Z,54.48
2022-11-20T13:23:37.899Z,54.72
2022-11-20T13:26:26.037Z,54.55
2022-11-20T13:29:18.489Z,54.64
2022-11-20T13:32:09.206Z,54.65
2022-11-20T13:34:57.649Z,54.24
2022-11-20T13:37:44.469Z,52.85
2022-11-20T13:40:33.459Z,54.01
2022-11-20T13:43:25.333Z,54.59
2022-11-20T13:46:12.758Z,54.84
2022-11-20T13:49:08.812Z,54.86
2022-11-20T13:52:06.260Z,54.53
2022-11-20T13:55:04.025Z,54.55
2022-11-20T13:58:08.098Z,52.33
2022-11-20T14:01:02.291Z,54.52
2022-11-20T14:04:05.756Z,54.91
2022-11-20T14:06:54.931Z,55.22
2022-11-20T14:09:52.626Z,54.27
2022-11-20T14:12:40.143Z,54.48
2022-11-20T14:15:31.348Z,54.07
2022-11-20T14:18:23.273Z,54.74
2022-11-20T14:21:11.875Z,55.25
2022-11-20T14:24:08.464Z,54.11
2022-11-20T14:26:55.986Z,54.64
2022-11-20T14:29:45.364Z,54.79
2022-11-20T14:32:33.456Z,54.52
2022-11-20T14:35:25.618Z,54.64
2022-11-20T14:38:15.462Z,54.99
2022-11-20T14:41:20.246Z,54.85
2022-11-20T14:44:10.061Z,54.01
2022-11-20T14:46:59.216Z,54.95
2022-11-20T14:50:09.891Z,55.19
2022-11-20T14:52:59.323Z,55.22
2022-11-20T14:55:46.445Z,55.00
2022-11-20T14:58:36.212Z,55.36
2022-11-20T15:01:28.425Z,55.46
2022-11-20T15:04:15.375Z,55.51
2022-11-20T15:07:02.625Z,55.68
2022-11-20T15:09:49.497Z,55.89
2022-11-20T15:12:40.574Z,56.28
2022-11-20T15:15:33.599Z,56.36
2022-11-20T15:18:24.441Z,56.65
2022-11-20T15:21:13.859Z,56.45
2022-11-20T15:24:01.822Z,56.91
2022-11-20T15:26:49.007Z,56.78
2022-11-20T15:29:36.352Z,56.79
2022-11-20T15:32:24.272Z,56.92
2022-11-20T15:35:12.511Z,57.85
2022-11-20T15:38:00.104Z,57.93
2022-11-20T15:40:47.641Z,57.67
2022-11-20T15:43:34.592Z,58.00
2022-11-20T15:46:27.883Z,57.77
2022-11-20T15:49:19.605Z,58.48
2022-11-20T15:52:06.505Z,57.88
2022-11-20T15:54:53.731Z,58.14
2022-11-20T15:57:40.851Z,57.55
2022-11-20T16:00:28.063Z,57.85
2022-11-20T16:03:15.369Z,57.56
2022-11-20T16:06:03.611Z,58.07
2022-11-20T16:08:50.933Z,57.49
2022-11-20T16:11:38.409Z,57.94
2022-11-20T16:14:42.982Z,57.97
2022-11-20T16:17:43.446Z,57.91
2022-11-20T16:20:31.176Z,57.78
2022-11-20T16:23:20.136Z,58.26
2022-11-20T16:26:12.155Z,58.26
2022-11-20T16:29:01.735Z,58.04
2022-11-20T16:31:49.041Z,58.13
2022-11-20T16:34:35.764Z,58.19
2022-11-20T16:37:23.086Z,58.64
2022-11-20T16:40:13.199Z,58.07
2022-11-20T16:43:10.782Z,58.02
2022-11-20T16:45:57.822Z,58.66
2022-11-20T16:48:44.938Z,58.62
2022-11-20T16:51:35.639Z,58.10
2022-11-20T16:54:23.375Z,58.10
2022-11-20T16:57:11.918Z,58.33
2022-11-20T17:00:02.286Z,58.49
2022-11-20T17:02:49.691Z,58.91
2022-11-20T17:05:37.340Z,58.98
2022-11-20T17:08:24.439Z,59.22
2022-11-20T17:11:14.838Z,59.07
2022-11-20T17:14:03.664Z,58.81
2022-11-20T17:16:50.763Z,58.56
2022-11-20T17:19:37.979Z,58.50
2022-11-20T17:22:25.216Z,58.55
2022-11-20T17:25:12.332Z,58.70
2022-11-20T17:27:59.522Z,58.74
2022-11-20T17:30:47.685Z,58.87
2022-11-20T17:33:36.510Z,58.77
2022-11-20T17:36:23.781Z,58.93
2022-11-20T17:39:10.913Z,58.59
2022-11-20T17:42:11.946Z,58.64
2022-11-20T17:44:59.711Z,58.29
2022-11-20T17:47:48.125Z,58.15
2022-11-20T17:50:35.392Z,58.00
2022-11-20T17:53:22.350Z,57.96
2022-11-20T17:56:27.703Z,58.03
2022-11-20T17:59:15.029Z,58.11
2022-11-20T18:02:03.903Z,57.89
2022-11-20T18:04:52.936Z,58.02
2022-11-20T18:07:41.952Z,58.00
2022-11-20T18:10:30.889Z,57.88
2022-11-20T18:13:17.778Z,57.99
2022-11-20T18:16:08.188Z,58.10
2022-11-20T18:18:56.417Z,58.37
2022-11-20T18:21:45.318Z,58.98
2022-11-20T18:24:33.130Z,58.88
2022-11-20T18:27:23.216Z,58.67
2022-11-20T18:30:11.747Z,58.95
2022-11-20T18:33:00.292Z,59.02
2022-11-20T18:35:47.474Z,59.42
2022-11-20T18:38:36.545Z,59.57
2022-11-20T18:41:42.336Z,59.47
2022-11-20T18:44:48.815Z,59.11
2022-11-20T18:47:39.251Z,59.07
2022-11-20T18:50:26.622Z,59.07
2022-11-20T18:53:13.487Z,58.98
2022-11-20T18:56:04.963Z,58.84
2022-11-20T18:58:52.047Z,58.82
2022-11-20T19:01:39.759Z,58.82
2022-11-20T19:04:27.721Z,58.76
2022-11-20T19:07:15.319Z,58.76
2022-11-20T19:10:03.923Z,58.93
2022-11-20T19:12:53.030Z,58.89
2022-11-20T19:15:40.412Z,59.07
2022-11-20T19:18:29.448Z,59.05
2022-11-20T19:21:22.648Z,59.29
2022-11-20T19:24:09.969Z,59.26
2022-11-20T19:26:57.276Z,59.22
2022-11-20T19:29:46.336Z,59.09
2022-11-20T19:32:35.346Z,58.88
2022-11-20T19:35:22.646Z,59.05
2022-11-20T19:38:10.581Z,59.05
2022-11-20T19:40:57.801Z,58.89
2022-11-20T19:43:46.416Z,58.95
2022-11-20T19:46:36.919Z,59.48
2022-11-20T19:49:24.540Z,59.66
2022-11-20T19:52:12.299Z,60.11
2022-11-20T19:54:59.187Z,60.39
2022-11-20T19:57:46.662Z,59.83
2022-11-20T20:00:33.360Z,59.36
2022-11-20T20:03:22.286Z,59.18
2022-11-20T20:06:11.674Z,59.45
2022-11-20T20:09:01.366Z,59.45
2022-11-20T20:11:48.470Z,59.54
2022-11-20T20:14:35.778Z,59.21
2022-11-20T20:17:22.793Z,59.25
2022-11-20T20:20:12.652Z,59.31
2022-11-20T20:22:59.797Z,59.06
2022-11-20T20:25:49.282Z,58.93
2022-11-20T20:28:37.254Z,58.94
2022-11-20T20:31:26.431Z,59.19
2022-11-20T20:34:13.746Z,59.58
2022-11-20T20:37:04.018Z,59.91
2022-11-20T20:39:50.821Z,59.81
2022-11-20T20:42:38.274Z,60.37
2022-11-20T20:45:24.960Z,60.45
2022-11-20T20:48:12.290Z,60.37
2022-11-20T20:51:01.018Z,60.29
2022-11-20T20:53:49.790Z,60.59
2022-11-20T20:56:36.582Z,60.25
2022-11-20T20:59:23.534Z,60.35
2022-11-20T21:02:11.787Z,60.57
2022-11-20T21:04:59.959Z,60.32
2022-11-20T21:08:04.399Z,60.09
2022-11-20T21:10:55.035Z,59.98
2022-11-20T21:13:43.683Z,60.03
2022-11-20T21:16:40.913Z,60.05
2022-11-20T21:19:28.239Z,60.00
2022-11-20T21:22:14.346Z,60.37
2022-11-20T21:25:00.937Z,60.51
2022-11-20T21:27:49.093Z,60.79
2022-11-20T21:30:36.301Z,60.65
2022-11-20T21:33:23.331Z,60.33
2022-11-20T21:36:12.997Z,60.41
2022-11-20T21:39:00.415Z,60.47
2022-11-20T21:41:47.521Z,60.41
2022-11-20T21:44:36.278Z,60.52
2022-11-20T21:47:23.246Z,60.29
2022-11-20T21:50:11.320Z,60.61
2022-11-20T21:52:58.083Z,60.75
2022-11-20T21:55:53.690Z,60.80
2022-11-20T21:58:41.731Z,60.82
2022-11-20T22:01:31.452Z,60.93
2022-11-20T22:04:18.536Z,60.83
2022-11-20T22:07:06.901Z,60.85
2022-11-20T22:09:54.248Z,60.93
2022-11-20T22:12:41.092Z,61.10
2022-11-20T22:15:58.798Z,61.19
2022-11-20T22:18:35.427Z,61.13
2022-11-20T22:21:24.493Z,61.15
2022-11-20T22:24:14.050Z,61.50
2022-11-20T22:27:01.270Z,61.39
2022-11-20T22:29:47.974Z,61.22
2022-11-20T22:32:35.218Z,61.25
2022-11-20T22:35:23.559Z,61.20
2022-11-20T22:38:10.845Z,61.24
2022-11-20T22:41:02.902Z,61.21
2022-11-20T22:43:55.429Z,61.07
2022-11-20T22:46:42.069Z,60.56
2022-11-20T22:49:29.117Z,60.73
2022-11-20T22:52:17.380Z,60.87
2022-11-20T22:55:04.682Z,60.38
2022-11-20T22:57:51.714Z,61.24
2022-11-20T23:00:39.226Z,61.48
2022-11-20T23:03:26.015Z,60.72
2022-11-20T23:06:14.263Z,60.76
2022-11-20T23:09:02.880Z,60.45
2022-11-20T23:11:50.140Z,60.24
2022-11-20T23:14:37.210Z,60.29
2022-11-20T23:17:24.551Z,59.92
2022-11-20T23:20:12.279Z,59.94
2022-11-20T23:22:59.457Z,60.16
2022-11-20T23:25:47.598Z,60.33
2022-11-20T23:28:35.457Z,60.28
2022-11-20T23:31:22.444Z,60.90
2022-11-20T23:34:09.438Z,61.33
2022-11-20T23:36:56.234Z,61.89
2022-11-20T23:39:43.526Z,62.13
2022-11-20T23:42:31.800Z,61.98
2022-11-20T23:45:19.001Z,61.86
2022-11-20T23:48:06.531Z,62.06
2022-11-20T23:50:53.946Z,61.82
2022-11-20T23:53:41.186Z,62.80
2022-11-20T23:56:31.251Z,62.29
2022-11-20T23:59:19.594Z,62.37
